sensor_id;sensor_type;location;lat;lon;timestamp;pressure;altitude;pressure_sealevel;temperature;humidity
7170;BME280;3626;42.656;23.312;2022-08-01T00:00:03;94456.75;;;18.76;59.95
7170;BME280;3626;42.656;23.312;2022-08-01T00:00:10;94454.38;;;18.74;60.04
7170;BME280;3626;42.656;23.312;2022-08-01T00:00:16;94462.22;;;18.74;60.29
7170;BME280;3626;42.656;23.312;2022-08-01T00:00:22;94458.56;;;18.75;60.05
7170;BME280;3626;42.656;23.312;2022-08-01T00:00:28;94458.56;;;18.75;60.03
7170;BME280;3626;42.656;23.312;2022-08-01T00:00:35;94457.56;;;18.76;60.12
7170;BME280;3626;42.656;23.312;2022-08-01T00:00:41;94460.16;;;18.76;60.32
7170;BME280;3626;42.656;23.312;2022-08-01T00:00:47;94455.16;;;18.75;60.37
7170;BME280;3626;42.656;23.312;2022-08-01T00:00:52;94461.19;;;18.75;60.20
7170;BME280;3626;42.656;23.312;2022-08-01T00:00:58;94452.56;;;18.75;60.04
7170;BME280;3626;42.656;23.312;2022-08-01T00:01:04;94455.97;;;18.75;59.99
7170;BME280;3626;42.656;23.312;2022-08-01T00:01:12;94457.56;;;18.76;60.15
7170;BME280;3626;42.656;23.312;2022-08-01T00:01:18;94458.34;;;18.77;59.96
7170;BME280;3626;42.656;23.312;2022-08-01T00:01:23;94455.97;;;18.75;60.03
7170;BME280;3626;42.656;23.312;2022-08-01T00:01:29;94451.75;;;18.74;59.97
7170;BME280;3626;42.656;23.312;2022-08-01T00:01:35;94459.59;;;18.74;59.93
7170;BME280;3626;42.656;23.312;2022-08-01T00:01:41;94457.00;;;18.74;59.96
7170;BME280;3626;42.656;23.312;2022-08-01T00:01:47;94456.19;;;18.73;59.94
7170;BME280;3626;42.656;23.312;2022-08-01T00:01:53;94456.19;;;18.73;60.06
7170;BME280;3626;42.656;23.312;2022-08-01T00:01:58;94452.75;;;18.73;59.99
7170;BME280;3626;42.656;23.312;2022-08-01T00:02:05;94455.59;;;18.71;59.93
7170;BME280;3626;42.656;23.312;2022-08-01T00:02:12;94454.56;;;18.72;60.07
7170;BME280;3626;42.656;23.312;2022-08-01T00:02:18;94450.97;;;18.73;59.90
7170;BME280;3626;42.656;23.312;2022-08-01T00:02:24;94457.00;;;18.74;59.93
7170;BME280;3626;42.656;23.312;2022-08-01T00:02:29;94450.72;;;18.75;59.94
7170;BME280;3626;42.656;23.312;2022-08-01T00:02:36;94453.91;;;18.77;59.72
7170;BME280;3626;42.656;23.312;2022-08-01T00:02:43;94459.13;;;18.77;59.89
7170;BME280;3626;42.656;23.312;2022-08-01T00:02:48;94453.91;;;18.77;59.77
7170;BME280;3626;42.656;23.312;2022-08-01T00:02:54;94458.16;;;18.78;59.83
7170;BME280;3626;42.656;23.312;2022-08-01T00:03:00;94452.13;;;18.78;59.63
7170;BME280;3626;42.656;23.312;2022-08-01T00:03:06;94457.56;;;18.76;59.54
7170;BME280;3626;42.656;23.312;2022-08-01T00:03:11;94455.16;;;18.75;59.63
7170;BME280;3626;42.656;23.312;2022-08-01T00:03:17;94460.41;;;18.75;59.66
7170;BME280;3626;42.656;23.312;2022-08-01T00:03:23;94457.00;;;18.74;59.53
7170;BME280;3626;42.656;23.312;2022-08-01T00:03:29;94460.59;;;18.73;59.77
7170;BME280;3626;42.656;23.312;2022-08-01T00:03:34;94452.97;;;18.71;59.96
7170;BME280;3626;42.656;23.312;2022-08-01T00:03:40;94457.19;;;18.72;59.94
7170;BME280;3626;42.656;23.312;2022-08-01T00:03:47;94460.59;;;18.73;59.89
7170;BME280;3626;42.656;23.312;2022-08-01T00:03:53;94454.81;;;18.71;59.72
7170;BME280;3626;42.656;23.312;2022-08-01T00:03:58;94452.97;;;18.71;59.77
7170;BME280;3626;42.656;23.312;2022-08-01T00:04:04;94457.41;;;18.71;59.69
7170;BME280;3626;42.656;23.312;2022-08-01T00:04:10;94458.81;;;18.73;59.73
7170;BME280;3626;42.656;23.312;2022-08-01T00:04:16;94451.97;;;18.72;59.75
7170;BME280;3626;42.656;23.312;2022-08-01T00:04:21;94457.19;;;18.72;59.74
7170;BME280;3626;42.656;23.312;2022-08-01T00:04:27;94452.75;;;18.73;59.52
7170;BME280;3626;42.656;23.312;2022-08-01T00:04:33;94451.16;;;18.72;59.74
7170;BME280;3626;42.656;23.312;2022-08-01T00:04:39;94455.38;;;18.73;59.55
7170;BME280;3626;42.656;23.312;2022-08-01T00:04:45;94456.19;;;18.73;59.59
7170;BME280;3626;42.656;23.312;2022-08-01T00:04:53;94451.75;;;18.74;59.50
7170;BME280;3626;42.656;23.312;2022-08-01T00:04:59;94455.97;;;18.75;59.37
7170;BME280;3626;42.656;23.312;2022-08-01T00:05:06;94455.16;;;18.75;59.53
7170;BME280;3626;42.656;23.312;2022-08-01T00:05:12;94455.16;;;18.75;59.25
7170;BME280;3626;42.656;23.312;2022-08-01T00:05:18;94459.59;;;18.74;59.38
7170;BME280;3626;42.656;23.312;2022-08-01T00:05:24;94451.16;;;18.72;59.57
7170;BME280;3626;42.656;23.312;2022-08-01T00:05:30;94457.97;;;18.73;59.55
7170;BME280;3626;42.656;23.312;2022-08-01T00:05:36;94453.22;;;18.70;59.45
7170;BME280;3626;42.656;23.312;2022-08-01T00:05:42;94453.38;;;18.68;59.51
7170;BME280;3626;42.656;23.312;2022-08-01T00:05:49;94451.56;;;18.69;59.37
7170;BME280;3626;42.656;23.312;2022-08-01T00:05:55;94450.78;;;18.68;59.45
7170;BME280;3626;42.656;23.312;2022-08-01T00:06:01;94456.78;;;18.69;59.24
7170;BME280;3626;42.656;23.312;2022-08-01T00:06:07;94456.00;;;18.68;59.09
7170;BME280;3626;42.656;23.312;2022-08-01T00:06:12;94450.78;;;18.68;59.06
7170;BME280;3626;42.656;23.312;2022-08-01T00:06:18;94451.56;;;18.69;59.24
7170;BME280;3626;42.656;23.312;2022-08-01T00:06:24;94453.38;;;18.68;59.26
7170;BME280;3626;42.656;23.312;2022-08-01T00:06:31;94455.03;;;18.69;59.19
7170;BME280;3626;42.656;23.312;2022-08-01T00:06:37;94460.25;;;18.69;59.01
7170;BME280;3626;42.656;23.312;2022-08-01T00:06:42;94461.06;;;18.70;59.07
7170;BME280;3626;42.656;23.312;2022-08-01T00:06:48;94456.78;;;18.69;59.28
7170;BME280;3626;42.656;23.312;2022-08-01T00:06:54;94458.63;;;18.68;59.34
7170;BME280;3626;42.656;23.312;2022-08-01T00:07:00;94455.22;;;18.68;59.22
7170;BME280;3626;42.656;23.312;2022-08-01T00:07:05;94455.22;;;18.68;59.26
7170;BME280;3626;42.656;23.312;2022-08-01T00:07:11;94456.78;;;18.69;59.08
7170;BME280;3626;42.656;23.312;2022-08-01T00:07:17;94452.44;;;18.69;59.34
7170;BME280;3626;42.656;23.312;2022-08-01T00:07:23;94454.81;;;18.71;59.26
7170;BME280;3626;42.656;23.312;2022-08-01T00:07:28;94452.19;;;18.71;59.19
7170;BME280;3626;42.656;23.312;2022-08-01T00:07:34;94448.78;;;18.70;59.04
7170;BME280;3626;42.656;23.312;2022-08-01T00:07:40;94455.84;;;18.70;59.18
7170;BME280;3626;42.656;23.312;2022-08-01T00:07:47;94452.19;;;18.71;59.16
7170;BME280;3626;42.656;23.312;2022-08-01T00:07:55;94451.97;;;18.72;59.17
7170;BME280;3626;42.656;23.312;2022-08-01T00:08:01;94450.38;;;18.71;59.23
7170;BME280;3626;42.656;23.312;2022-08-01T00:08:07;94452.19;;;18.71;59.18
7170;BME280;3626;42.656;23.312;2022-08-01T00:08:12;94454.81;;;18.71;59.04
7170;BME280;3626;42.656;23.312;2022-08-01T00:08:18;94451.41;;;18.70;59.21
7170;BME280;3626;42.656;23.312;2022-08-01T00:08:24;94456.41;;;18.72;59.03
7170;BME280;3626;42.656;23.312;2022-08-01T00:08:30;94458.44;;;18.70;59.17
7170;BME280;3626;42.656;23.312;2022-08-01T00:08:36;94459.41;;;18.69;59.30
7170;BME280;3626;42.656;23.312;2022-08-01T00:08:42;94449.97;;;18.68;59.27
7170;BME280;3626;42.656;23.312;2022-08-01T00:08:48;94455.22;;;18.68;59.35
7170;BME280;3626;42.656;23.312;2022-08-01T00:08:53;94452.59;;;18.68;59.15
7170;BME280;3626;42.656;23.312;2022-08-01T00:08:59;94451.81;;;18.67;59.27
7170;BME280;3626;42.656;23.312;2022-08-01T00:09:05;94452.59;;;18.68;59.31
7170;BME280;3626;42.656;23.312;2022-08-01T00:09:11;94455.44;;;18.66;59.15
7170;BME280;3626;42.656;23.312;2022-08-01T00:09:17;94453.84;;;18.65;59.06
7170;BME280;3626;42.656;23.312;2022-08-01T00:09:23;94454.66;;;18.66;59.11
7170;BME280;3626;42.656;23.312;2022-08-01T00:09:29;94452.22;;;18.64;59.10
7170;BME280;3626;42.656;23.312;2022-08-01T00:09:35;94450.06;;;18.61;59.33
7170;BME280;3626;42.656;23.312;2022-08-01T00:09:40;94451.06;;;18.60;59.22
7170;BME280;3626;42.656;23.312;2022-08-01T00:09:46;94450.88;;;18.62;59.34
7170;BME280;3626;42.656;23.312;2022-08-01T00:09:52;94450.06;;;18.61;59.34
7170;BME280;3626;42.656;23.312;2022-08-01T00:09:57;94450.88;;;18.62;59.37
7170;BME280;3626;42.656;23.312;2022-08-01T00:10:05;94454.50;;;18.61;59.44
7170;BME280;3626;42.656;23.312;2022-08-01T00:10:13;94453.47;;;18.62;59.21
7170;BME280;3626;42.656;23.312;2022-08-01T00:10:19;94453.25;;;18.63;59.10
7170;BME280;3626;42.656;23.312;2022-08-01T00:10:25;94451.44;;;18.64;59.33
7170;BME280;3626;42.656;23.312;2022-08-01T00:10:32;94452.47;;;18.63;59.34
7170;BME280;3626;42.656;23.312;2022-08-01T00:10:38;94449.63;;;18.64;59.48
7170;BME280;3626;42.656;23.312;2022-08-01T00:10:43;94455.88;;;18.63;59.46
7170;BME280;3626;42.656;23.312;2022-08-01T00:10:49;94455.66;;;18.65;59.25
7170;BME280;3626;42.656;23.312;2022-08-01T00:10:55;94452.47;;;18.63;59.19
7170;BME280;3626;42.656;23.312;2022-08-01T00:11:01;94451.66;;;18.62;58.91
7170;BME280;3626;42.656;23.312;2022-08-01T00:11:06;94449.06;;;18.62;59.31
7170;BME280;3626;42.656;23.312;2022-08-01T00:11:14;94455.31;;;18.61;59.29
7170;BME280;3626;42.656;23.312;2022-08-01T00:11:20;94447.66;;;18.60;59.28
7170;BME280;3626;42.656;23.312;2022-08-01T00:11:26;94446.88;;;18.59;59.26
7170;BME280;3626;42.656;23.312;2022-08-01T00:11:31;94446.31;;;18.57;59.06
7170;BME280;3626;42.656;23.312;2022-08-01T00:11:37;94451.31;;;18.59;59.26
7170;BME280;3626;42.656;23.312;2022-08-01T00:11:43;94451.31;;;18.59;59.19
7170;BME280;3626;42.656;23.312;2022-08-01T00:11:50;94454.50;;;18.61;58.97
7170;BME280;3626;42.656;23.312;2022-08-01T00:11:56;94452.88;;;18.60;58.98
7170;BME280;3626;42.656;23.312;2022-08-01T00:12:01;94452.31;;;18.58;58.80
7170;BME280;3626;42.656;23.312;2022-08-01T00:12:07;94451.53;;;18.57;58.89
7170;BME280;3626;42.656;23.312;2022-08-01T00:12:13;94459.38;;;18.57;58.98
7170;BME280;3626;42.656;23.312;2022-08-01T00:12:19;94450.75;;;18.57;58.90
7170;BME280;3626;42.656;23.312;2022-08-01T00:12:25;94448.31;;;18.55;59.05
7170;BME280;3626;42.656;23.312;2022-08-01T00:12:31;94453.56;;;18.55;59.04
7170;BME280;3626;42.656;23.312;2022-08-01T00:12:36;94455.38;;;18.55;59.00
7170;BME280;3626;42.656;23.312;2022-08-01T00:12:44;94449.13;;;18.56;58.99
7170;BME280;3626;42.656;23.312;2022-08-01T00:12:50;94450.16;;;18.55;58.97
7170;BME280;3626;42.656;23.312;2022-08-01T00:12:56;94447.75;;;18.53;58.67
7170;BME280;3626;42.656;23.312;2022-08-01T00:13:01;94458.22;;;18.53;58.74
7170;BME280;3626;42.656;23.312;2022-08-01T00:13:07;94449.34;;;18.54;58.46
7170;BME280;3626;42.656;23.312;2022-08-01T00:13:13;94448.56;;;18.54;58.60
7170;BME280;3626;42.656;23.312;2022-08-01T00:13:20;94450.16;;;18.55;58.41
7170;BME280;3626;42.656;23.312;2022-08-01T00:13:25;94451.72;;;18.56;58.46
7170;BME280;3626;42.656;23.312;2022-08-01T00:13:31;94450.94;;;18.55;58.54
7170;BME280;3626;42.656;23.312;2022-08-01T00:13:37;94452.53;;;18.56;58.51
7170;BME280;3626;42.656;23.312;2022-08-01T00:13:43;94454.94;;;18.58;58.58
7170;BME280;3626;42.656;23.312;2022-08-01T00:13:48;94455.50;;;18.60;58.61
7170;BME280;3626;42.656;23.312;2022-08-01T00:13:54;94454.94;;;18.58;58.52
7170;BME280;3626;42.656;23.312;2022-08-01T00:14:00;94449.72;;;18.58;58.58
7170;BME280;3626;42.656;23.312;2022-08-01T00:14:06;94447.09;;;18.58;58.71
7170;BME280;3626;42.656;23.312;2022-08-01T00:14:11;94443.69;;;18.57;58.73
7170;BME280;3626;42.656;23.312;2022-08-01T00:14:17;94450.75;;;18.57;58.72
7170;BME280;3626;42.656;23.312;2022-08-01T00:14:23;94452.53;;;18.56;58.67
7170;BME280;3626;42.656;23.312;2022-08-01T00:14:29;94453.34;;;18.57;58.71
7170;BME280;3626;42.656;23.312;2022-08-01T00:14:34;94450.75;;;18.57;58.58
7170;BME280;3626;42.656;23.312;2022-08-01T00:14:41;94451.31;;;18.59;58.61
7170;BME280;3626;42.656;23.312;2022-08-01T00:14:47;94453.91;;;18.59;58.56
7170;BME280;3626;42.656;23.312;2022-08-01T00:14:53;94452.88;;;18.60;58.64
7170;BME280;3626;42.656;23.312;2022-08-01T00:14:59;94451.31;;;18.59;58.76
7170;BME280;3626;42.656;23.312;2022-08-01T00:15:06;94446.06;;;18.59;58.50
7170;BME280;3626;42.656;23.312;2022-08-01T00:15:13;94449.28;;;18.61;58.61
7170;BME280;3626;42.656;23.312;2022-08-01T00:15:19;94448.69;;;18.59;58.43
7170;BME280;3626;42.656;23.312;2022-08-01T00:15:25;94456.53;;;18.59;58.34
7170;BME280;3626;42.656;23.312;2022-08-01T00:15:31;94450.50;;;18.58;58.31
7170;BME280;3626;42.656;23.312;2022-08-01T00:15:37;94446.88;;;18.59;58.35
7170;BME280;3626;42.656;23.312;2022-08-01T00:15:43;94447.66;;;18.60;58.38
7170;BME280;3626;42.656;23.312;2022-08-01T00:15:49;94451.06;;;18.60;58.37
7170;BME280;3626;42.656;23.312;2022-08-01T00:15:54;94451.31;;;18.59;58.59
7170;BME280;3626;42.656;23.312;2022-08-01T00:16:00;94454.94;;;18.58;58.45
7170;BME280;3626;42.656;23.312;2022-08-01T00:16:06;94448.13;;;18.57;58.75
7170;BME280;3626;42.656;23.312;2022-08-01T00:16:13;94453.13;;;18.58;58.63
7170;BME280;3626;42.656;23.312;2022-08-01T00:16:19;94452.88;;;18.60;58.72
7170;BME280;3626;42.656;23.312;2022-08-01T00:16:28;94455.31;;;18.61;58.48
7170;BME280;3626;42.656;23.312;2022-08-01T00:16:33;94452.88;;;18.60;58.64
7170;BME280;3626;42.656;23.312;2022-08-01T00:16:39;94443.47;;;18.59;58.52
7170;BME280;3626;42.656;23.312;2022-08-01T00:16:45;94448.69;;;18.59;58.46
7170;BME280;3626;42.656;23.312;2022-08-01T00:16:51;94453.69;;;18.60;58.45
7170;BME280;3626;42.656;23.312;2022-08-01T00:16:56;94451.06;;;18.60;58.43
7170;BME280;3626;42.656;23.312;2022-08-01T00:17:02;94445.84;;;18.60;58.65
7170;BME280;3626;42.656;23.312;2022-08-01T00:17:08;94454.50;;;18.61;58.62
7170;BME280;3626;42.656;23.312;2022-08-01T00:17:15;94456.09;;;18.62;58.71
7170;BME280;3626;42.656;23.312;2022-08-01T00:17:21;94447.47;;;18.61;58.63
7170;BME280;3626;42.656;23.312;2022-08-01T00:17:28;94449.28;;;18.61;58.57
7170;BME280;3626;42.656;23.312;2022-08-01T00:17:33;94444.84;;;18.61;58.59
7170;BME280;3626;42.656;23.312;2022-08-01T00:17:39;94446.44;;;18.62;58.61
7170;BME280;3626;42.656;23.312;2022-08-01T00:17:45;94452.47;;;18.63;58.42
7170;BME280;3626;42.656;23.312;2022-08-01T00:17:51;94450.63;;;18.63;58.47
7170;BME280;3626;42.656;23.312;2022-08-01T00:17:57;94447.00;;;18.64;58.50
7170;BME280;3626;42.656;23.312;2022-08-01T00:18:02;94446.00;;;18.65;58.49
7170;BME280;3626;42.656;23.312;2022-08-01T00:18:08;94450.44;;;18.65;58.50
7170;BME280;3626;42.656;23.312;2022-08-01T00:18:14;94450.44;;;18.65;58.74
7170;BME280;3626;42.656;23.312;2022-08-01T00:18:20;94449.63;;;18.64;58.50
7170;BME280;3626;42.656;23.312;2022-08-01T00:18:26;94450.63;;;18.63;58.63
7170;BME280;3626;42.656;23.312;2022-08-01T00:18:32;94448.81;;;18.64;58.65
7170;BME280;3626;42.656;23.312;2022-08-01T00:18:37;94455.06;;;18.63;58.41
7170;BME280;3626;42.656;23.312;2022-08-01T00:18:43;94452.47;;;18.63;58.39
7170;BME280;3626;42.656;23.312;2022-08-01T00:18:49;94451.66;;;18.62;58.38
7170;BME280;3626;42.656;23.312;2022-08-01T00:18:56;94451.66;;;18.62;58.34
7170;BME280;3626;42.656;23.312;2022-08-01T00:19:02;94449.06;;;18.62;58.56
7170;BME280;3626;42.656;23.312;2022-08-01T00:19:07;94449.06;;;18.62;58.39
7170;BME280;3626;42.656;23.312;2022-08-01T00:19:13;94451.91;;;18.61;58.50
7170;BME280;3626;42.656;23.312;2022-08-01T00:19:19;94451.06;;;18.60;58.59
7170;BME280;3626;42.656;23.312;2022-08-01T00:19:24;94451.31;;;18.59;58.64
7170;BME280;3626;42.656;23.312;2022-08-01T00:19:30;94450.50;;;18.58;58.81
7170;BME280;3626;42.656;23.312;2022-08-01T00:19:36;94452.31;;;18.58;58.64
7170;BME280;3626;42.656;23.312;2022-08-01T00:19:42;94451.72;;;18.56;58.65
7170;BME280;3626;42.656;23.312;2022-08-01T00:19:48;94450.94;;;18.55;58.39
7170;BME280;3626;42.656;23.312;2022-08-01T00:19:54;94444.13;;;18.54;58.60
7170;BME280;3626;42.656;23.312;2022-08-01T00:20:01;94447.75;;;18.53;58.35
7170;BME280;3626;42.656;23.312;2022-08-01T00:20:10;94444.13;;;18.54;58.32
7170;BME280;3626;42.656;23.312;2022-08-01T00:20:16;94446.50;;;18.56;58.18
7170;BME280;3626;42.656;23.312;2022-08-01T00:20:21;94447.53;;;18.55;58.41
7170;BME280;3626;42.656;23.312;2022-08-01T00:20:27;94447.53;;;18.55;58.40
7170;BME280;3626;42.656;23.312;2022-08-01T00:20:33;94451.16;;;18.54;58.38
7170;BME280;3626;42.656;23.312;2022-08-01T00:20:39;94447.75;;;18.53;58.33
7170;BME280;3626;42.656;23.312;2022-08-01T00:20:45;94450.16;;;18.55;58.23
7170;BME280;3626;42.656;23.312;2022-08-01T00:20:50;94450.16;;;18.55;58.33
7170;BME280;3626;42.656;23.312;2022-08-01T00:20:56;94449.13;;;18.56;58.24
7170;BME280;3626;42.656;23.312;2022-08-01T00:21:02;94449.91;;;18.56;58.20
7170;BME280;3626;42.656;23.312;2022-08-01T00:21:08;94447.53;;;18.55;58.04
7170;BME280;3626;42.656;23.312;2022-08-01T00:21:14;94447.97;;;18.52;58.03
7170;BME280;3626;42.656;23.312;2022-08-01T00:21:19;94447.16;;;18.51;58.19
7170;BME280;3626;42.656;23.312;2022-08-01T00:21:26;94452.38;;;18.51;58.11
7170;BME280;3626;42.656;23.312;2022-08-01T00:21:32;94450.81;;;18.50;58.36
7170;BME280;3626;42.656;23.312;2022-08-01T00:21:38;94448.97;;;18.51;58.20
7170;BME280;3626;42.656;23.312;2022-08-01T00:21:44;94455.81;;;18.52;58.19
7170;BME280;3626;42.656;23.312;2022-08-01T00:21:49;94450.56;;;18.52;58.08
7170;BME280;3626;42.656;23.312;2022-08-01T00:21:55;94452.19;;;18.53;58.20
7170;BME280;3626;42.656;23.312;2022-08-01T00:22:01;94452.38;;;18.51;58.10
7170;BME280;3626;42.656;23.312;2022-08-01T00:22:06;94446.38;;;18.51;58.19
7170;BME280;3626;42.656;23.312;2022-08-01T00:22:12;94455.00;;;18.51;58.36
7170;BME280;3626;42.656;23.312;2022-08-01T00:22:18;94454.22;;;18.51;58.26
7170;BME280;3626;42.656;23.312;2022-08-01T00:22:24;94450.56;;;18.52;58.38
7170;BME280;3626;42.656;23.312;2022-08-01T00:22:30;94455.00;;;18.51;58.42
7170;BME280;3626;42.656;23.312;2022-08-01T00:22:36;94451.59;;;18.51;58.27
7170;BME280;3626;42.656;23.312;2022-08-01T00:22:42;94454.22;;;18.51;58.55
7170;BME280;3626;42.656;23.312;2022-08-01T00:22:49;94456.25;;;18.48;58.33
7170;BME280;3626;42.656;23.312;2022-08-01T00:22:54;94459.88;;;18.47;58.55
7170;BME280;3626;42.656;23.312;2022-08-01T00:23:02;94457.25;;;18.47;58.33
7170;BME280;3626;42.656;23.312;2022-08-01T00:23:07;94455.66;;;18.46;58.38
7170;BME280;3626;42.656;23.312;2022-08-01T00:23:13;94455.09;;;18.44;58.46
7170;BME280;3626;42.656;23.312;2022-08-01T00:23:19;94460.31;;;18.44;58.54
7170;BME280;3626;42.656;23.312;2022-08-01T00:23:25;94453.47;;;18.43;58.53
7170;BME280;3626;42.656;23.312;2022-08-01T00:23:31;94450.31;;;18.41;58.53
7170;BME280;3626;42.656;23.312;2022-08-01T00:23:36;94455.53;;;18.41;58.60
7170;BME280;3626;42.656;23.312;2022-08-01T00:23:42;94455.53;;;18.41;58.68
7170;BME280;3626;42.656;23.312;2022-08-01T00:23:48;94445.88;;;18.42;58.64
7170;BME280;3626;42.656;23.312;2022-08-01T00:23:54;94451.09;;;18.42;58.70
7170;BME280;3626;42.656;23.312;2022-08-01T00:24:00;94457.91;;;18.43;58.60
7170;BME280;3626;42.656;23.312;2022-08-01T00:24:06;94456.56;;;18.40;58.77
7170;BME280;3626;42.656;23.312;2022-08-01T00:24:13;94453.16;;;18.40;58.78
7170;BME280;3626;42.656;23.312;2022-08-01T00:24:18;94458.94;;;18.42;58.90
7170;BME280;3626;42.656;23.312;2022-08-01T00:24:24;94454.97;;;18.39;58.90
7170;BME280;3626;42.656;23.312;2022-08-01T00:24:30;94451.31;;;18.40;58.92
7170;BME280;3626;42.656;23.312;2022-08-01T00:24:36;94453.34;;;18.38;58.79
7170;BME280;3626;42.656;23.312;2022-08-01T00:24:41;94452.56;;;18.38;58.85
7170;BME280;3626;42.656;23.312;2022-08-01T00:24:47;94463.00;;;18.38;58.80
7170;BME280;3626;42.656;23.312;2022-08-01T00:24:53;94455.38;;;18.36;58.90
7170;BME280;3626;42.656;23.312;2022-08-01T00:24:59;94445.97;;;18.35;59.03
7170;BME280;3626;42.656;23.312;2022-08-01T00:25:06;94455.38;;;18.36;59.09
7170;BME280;3626;42.656;23.312;2022-08-01T00:25:12;94455.16;;;18.38;59.23
7170;BME280;3626;42.656;23.312;2022-08-01T00:25:18;94453.34;;;18.38;59.23
7170;BME280;3626;42.656;23.312;2022-08-01T00:25:23;94455.16;;;18.38;59.36
7170;BME280;3626;42.656;23.312;2022-08-01T00:25:29;94454.38;;;18.37;59.04
7170;BME280;3626;42.656;23.312;2022-08-01T00:25:35;94456.41;;;18.35;58.97
7170;BME280;3626;42.656;23.312;2022-08-01T00:25:42;94448.56;;;18.35;58.99
7170;BME280;3626;42.656;23.312;2022-08-01T00:25:47;94454.00;;;18.34;58.71
7170;BME280;3626;42.656;23.312;2022-08-01T00:25:53;94457.22;;;18.36;58.73
7170;BME280;3626;42.656;23.312;2022-08-01T00:25:59;94452.41;;;18.33;58.71
7170;BME280;3626;42.656;23.312;2022-08-01T00:26:05;94459.22;;;18.34;58.59
7170;BME280;3626;42.656;23.312;2022-08-01T00:26:10;94459.44;;;18.32;58.40
7170;BME280;3626;42.656;23.312;2022-08-01T00:26:16;94452.41;;;18.33;58.55
7170;BME280;3626;42.656;23.312;2022-08-01T00:26:22;94456.41;;;18.35;58.66
7170;BME280;3626;42.656;23.312;2022-08-01T00:26:28;94456.41;;;18.35;58.65
7170;BME280;3626;42.656;23.312;2022-08-01T00:26:33;94456.41;;;18.35;58.76
7170;BME280;3626;42.656;23.312;2022-08-01T00:26:39;94455.38;;;18.36;58.82
7170;BME280;3626;42.656;23.312;2022-08-01T00:26:45;94459.81;;;18.36;58.24
7170;BME280;3626;42.656;23.312;2022-08-01T00:26:52;94457.22;;;18.36;58.17
7170;BME280;3626;42.656;23.312;2022-08-01T00:26:57;94454.78;;;18.34;58.23
7170;BME280;3626;42.656;23.312;2022-08-01T00:27:03;94458.44;;;18.33;58.61
7170;BME280;3626;42.656;23.312;2022-08-01T00:27:09;94454.22;;;18.32;58.43
7170;BME280;3626;42.656;23.312;2022-08-01T00:27:15;94457.63;;;18.33;58.29
7170;BME280;3626;42.656;23.312;2022-08-01T00:27:20;94456.84;;;18.32;58.23
7170;BME280;3626;42.656;23.312;2022-08-01T00:27:26;94457.88;;;18.31;58.25
7170;BME280;3626;42.656;23.312;2022-08-01T00:27:32;94459.66;;;18.31;58.25
7170;BME280;3626;42.656;23.312;2022-08-01T00:27:38;94457.03;;;18.31;58.56
7170;BME280;3626;42.656;23.312;2022-08-01T00:27:44;94462.25;;;18.31;58.79
7170;BME280;3626;42.656;23.312;2022-08-01T00:27:50;94458.06;;;18.30;58.91
7170;BME280;3626;42.656;23.312;2022-08-01T00:27:55;94452.84;;;18.30;58.76
7170;BME280;3626;42.656;23.312;2022-08-01T00:28:01;94456.25;;;18.30;58.73
7170;BME280;3626;42.656;23.312;2022-08-01T00:28:07;94455.25;;;18.31;58.73
7170;BME280;3626;42.656;23.312;2022-08-01T00:28:14;94454.22;;;18.32;58.85
7170;BME280;3626;42.656;23.312;2022-08-01T00:28:19;94455.03;;;18.33;58.56
7170;BME280;3626;42.656;23.312;2022-08-01T00:28:25;94453.22;;;18.33;58.62
7170;BME280;3626;42.656;23.312;2022-08-01T00:28:32;94457.63;;;18.33;58.48
7170;BME280;3626;42.656;23.312;2022-08-01T00:28:38;94454.22;;;18.32;58.67
7170;BME280;3626;42.656;23.312;2022-08-01T00:28:43;94452.41;;;18.33;58.56
7170;BME280;3626;42.656;23.312;2022-08-01T00:28:49;94450.59;;;18.33;58.55
7170;BME280;3626;42.656;23.312;2022-08-01T00:28:55;94452.19;;;18.34;58.46
7170;BME280;3626;42.656;23.312;2022-08-01T00:29:01;94454.00;;;18.34;58.66
7170;BME280;3626;42.656;23.312;2022-08-01T00:29:06;94451.38;;;18.34;58.60
7170;BME280;3626;42.656;23.312;2022-08-01T00:29:12;94462.06;;;18.32;58.86
7170;BME280;3626;42.656;23.312;2022-08-01T00:29:18;94461.03;;;18.33;58.77
7170;BME280;3626;42.656;23.312;2022-08-01T00:29:23;94455.81;;;18.33;58.63
7170;BME280;3626;42.656;23.312;2022-08-01T00:29:30;94457.63;;;18.33;58.77
7170;BME280;3626;42.656;23.312;2022-08-01T00:29:36;94455.03;;;18.33;58.91
7170;BME280;3626;42.656;23.312;2022-08-01T00:29:42;94450.81;;;18.32;58.72
7170;BME280;3626;42.656;23.312;2022-08-01T00:29:47;94457.63;;;18.33;58.77
7170;BME280;3626;42.656;23.312;2022-08-01T00:29:53;94450.03;;;18.31;58.78
7170;BME280;3626;42.656;23.312;2022-08-01T00:29:59;94462.84;;;18.33;58.87
7170;BME280;3626;42.656;23.312;2022-08-01T00:30:06;94457.03;;;18.31;58.72
7170;BME280;3626;42.656;23.312;2022-08-01T00:30:12;94454.66;;;18.29;58.81
7170;BME280;3626;42.656;23.312;2022-08-01T00:30:17;94454.88;;;18.28;58.86
7170;BME280;3626;42.656;23.312;2022-08-01T00:30:23;94451.47;;;18.27;58.93
7170;BME280;3626;42.656;23.312;2022-08-01T00:30:29;94453.06;;;18.28;58.67
7170;BME280;3626;42.656;23.312;2022-08-01T00:30:35;94452.03;;;18.29;58.83
7170;BME280;3626;42.656;23.312;2022-08-01T00:30:41;94452.03;;;18.29;58.57
7170;BME280;3626;42.656;23.312;2022-08-01T00:30:47;94459.09;;;18.29;58.57
7170;BME280;3626;42.656;23.312;2022-08-01T00:30:53;94452.03;;;18.29;58.56
7170;BME280;3626;42.656;23.312;2022-08-01T00:30:59;94456.25;;;18.30;58.42
7170;BME280;3626;42.656;23.312;2022-08-01T00:31:05;94455.44;;;18.30;58.26
7170;BME280;3626;42.656;23.312;2022-08-01T00:31:11;94456.25;;;18.30;58.46
7170;BME280;3626;42.656;23.312;2022-08-01T00:31:17;94454.44;;;18.31;58.28
7170;BME280;3626;42.656;23.312;2022-08-01T00:31:22;94452.03;;;18.29;58.48
7170;BME280;3626;42.656;23.312;2022-08-01T00:31:28;94446.81;;;18.29;58.55
7170;BME280;3626;42.656;23.312;2022-08-01T00:31:34;94452.84;;;18.30;58.51
7170;BME280;3626;42.656;23.312;2022-08-01T00:31:39;94451.81;;;18.31;58.45
7170;BME280;3626;42.656;23.312;2022-08-01T00:31:45;94455.25;;;18.31;58.63
7170;BME280;3626;42.656;23.312;2022-08-01T00:31:51;94452.63;;;18.31;58.31
7170;BME280;3626;42.656;23.312;2022-08-01T00:31:58;94449.00;;;18.32;58.34
7170;BME280;3626;42.656;23.312;2022-08-01T00:32:04;94456.03;;;18.32;58.45